sensor_id;sensor_type;location;lat;lon;timestamp;pressure;altitude;pressure_sealevel;temperature;humidity
71805;BME280;59654;52.216;5.616;2023-07-08T00:00:25;101582.13;;;18.57;61.52
71805;BME280;59654;52.216;5.616;2023-07-08T00:00:56;101583.00;;;18.57;61.66
71805;BME280;59654;52.216;5.616;2023-07-08T00:01:27;101584.06;;;18.55;61.75
71805;BME280;59654;52.216;5.616;2023-07-08T00:01:58;101583.19;;;18.54;62.22
71805;BME280;59654;52.216;5.616;2023-07-08T00:02:29;101577.78;;;18.54;61.66
71805;BME280;59654;52.216;5.616;2023-07-08T00:02:59;101575.06;;;18.54;61.94
71805;BME280;59654;52.216;5.616;2023-07-08T00:03:30;101576.91;;;18.54;61.82
71805;BME280;59654;52.216;5.616;2023-07-08T00:04:01;101575.16;;;18.53;62.08
71805;BME280;59654;52.216;5.616;2023-07-08T00:04:34;101579.59;;;18.54;62.15
71805;BME280;59654;52.216;5.616;2023-07-08T00:05:05;101577.88;;;18.53;62.27
71805;BME280;59654;52.216;5.616;2023-07-08T00:05:36;101571.59;;;18.52;62.22
71805;BME280;59654;52.216;5.616;2023-07-08T00:06:14;101571.69;;;18.51;62.57
71805;BME280;59654;52.216;5.616;2023-07-08T00:06:47;101571.78;;;18.49;62.56
71805;BME280;59654;52.216;5.616;2023-07-08T00:07:20;101568.09;;;18.50;62.56
71805;BME280;59654;52.216;5.616;2023-07-08T00:07:51;101570.03;;;18.48;61.95
71805;BME280;59654;52.216;5.616;2023-07-08T00:08:22;101574.56;;;18.48;62.71
71805;BME280;59654;52.216;5.616;2023-07-08T00:08:53;101573.78;;;18.46;62.15
71805;BME280;59654;52.216;5.616;2023-07-08T00:09:24;101564.81;;;18.45;62.58
71805;BME280;59654;52.216;5.616;2023-07-08T00:09:55;101564.03;;;18.43;62.21
71805;BME280;59654;52.216;5.616;2023-07-08T00:10:27;101561.44;;;18.42;62.38
71805;BME280;59654;52.216;5.616;2023-07-08T00:10:58;101564.16;;;18.42;61.98
71805;BME280;59654;52.216;5.616;2023-07-08T00:11:29;101557.88;;;18.41;62.41
71805;BME280;59654;52.216;5.616;2023-07-08T00:12:00;101566.06;;;18.40;62.90
71805;BME280;59654;52.216;5.616;2023-07-08T00:12:31;101566.06;;;18.40;62.45
71805;BME280;59654;52.216;5.616;2023-07-08T00:13:01;101560.66;;;18.40;62.94
71805;BME280;59654;52.216;5.616;2023-07-08T00:13:32;101561.53;;;18.40;63.20
71805;BME280;59654;52.216;5.616;2023-07-08T00:14:03;101549.84;;;18.40;63.03
71805;BME280;59654;52.216;5.616;2023-07-08T00:14:34;101553.69;;;18.36;62.81
71805;BME280;59654;52.216;5.616;2023-07-08T00:15:05;101553.59;;;18.37;62.70
71805;BME280;59654;52.216;5.616;2023-07-08T00:15:37;101562.56;;;18.38;62.71
71805;BME280;59654;52.216;5.616;2023-07-08T00:16:11;101558.84;;;18.40;62.33
71805;BME280;59654;52.216;5.616;2023-07-08T00:16:47;101564.31;;;18.39;62.64
71805;BME280;59654;52.216;5.616;2023-07-08T00:17:18;101560.75;;;18.38;62.93
71805;BME280;59654;52.216;5.616;2023-07-08T00:17:49;101564.31;;;18.39;63.40
71805;BME280;59654;52.216;5.616;2023-07-08T00:18:19;101554.56;;;18.36;63.52
71805;BME280;59654;52.216;5.616;2023-07-08T00:18:51;101552.81;;;18.35;63.09
71805;BME280;59654;52.216;5.616;2023-07-08T00:19:22;101552.81;;;18.35;63.08
71805;BME280;59654;52.216;5.616;2023-07-08T00:19:54;101554.66;;;18.35;63.24
71805;BME280;59654;52.216;5.616;2023-07-08T00:20:38;101554.75;;;18.33;63.44
71805;BME280;59654;52.216;5.616;2023-07-08T00:21:12;101553.00;;;18.32;63.57
71805;BME280;59654;52.216;5.616;2023-07-08T00:21:47;101548.56;;;18.31;63.62
71805;BME280;59654;52.216;5.616;2023-07-08T00:22:18;101548.47;;;18.33;63.10
71805;BME280;59654;52.216;5.616;2023-07-08T00:22:49;101553.78;;;18.34;63.61
71805;BME280;59654;52.216;5.616;2023-07-08T00:23:22;101545.84;;;18.31;63.43
71805;BME280;59654;52.216;5.616;2023-07-08T00:23:53;101550.38;;;18.30;63.40
71805;BME280;59654;52.216;5.616;2023-07-08T00:24:24;101552.03;;;18.33;63.02
71805;BME280;59654;52.216;5.616;2023-07-08T00:24:55;101548.47;;;18.33;63.54
71805;BME280;59654;52.216;5.616;2023-07-08T00:25:26;101547.69;;;18.30;63.79
71805;BME280;59654;52.216;5.616;2023-07-08T00:25:58;101545.16;;;18.27;64.23
71805;BME280;59654;52.216;5.616;2023-07-08T00:26:30;101547.97;;;18.26;64.32
71805;BME280;59654;52.216;5.616;2023-07-08T00:27:04;101547.13;;;18.25;63.84
71805;BME280;59654;52.216;5.616;2023-07-08T00:27:35;101545.28;;;18.26;64.05
71805;BME280;59654;52.216;5.616;2023-07-08T00:28:17;101549.69;;;18.27;63.38
71805;BME280;59654;52.216;5.616;2023-07-08T00:28:53;101548.84;;;18.26;64.02
71805;BME280;59654;52.216;5.616;2023-07-08T00:29:24;101547.97;;;18.26;64.24
71805;BME280;59654;52.216;5.616;2023-07-08T00:29:55;101542.59;;;18.26;63.71
71805;BME280;59654;52.216;5.616;2023-07-08T00:30:30;101548.84;;;18.26;63.58
71805;BME280;59654;52.216;5.616;2023-07-08T00:31:04;101547.13;;;18.25;63.67
71805;BME280;59654;52.216;5.616;2023-07-08T00:31:39;101551.63;;;18.25;63.55
71805;BME280;59654;52.216;5.616;2023-07-08T00:32:14;101555.31;;;18.24;63.55
71805;BME280;59654;52.216;5.616;2023-07-08T00:32:45;101549.22;;;18.20;64.34
71805;BME280;59654;52.216;5.616;2023-07-08T00:33:16;101545.69;;;18.18;64.27
71805;BME280;59654;52.216;5.616;2023-07-08T00:33:47;101549.22;;;18.20;64.08
71805;BME280;59654;52.216;5.616;2023-07-08T00:34:18;101546.56;;;18.19;64.93
71805;BME280;59654;52.216;5.616;2023-07-08T00:34:49;101553.00;;;18.16;64.66
71805;BME280;59654;52.216;5.616;2023-07-08T00:35:22;101549.59;;;18.13;64.47
71805;BME280;59654;52.216;5.616;2023-07-08T00:35:55;101563.09;;;18.13;64.63
71805;BME280;59654;52.216;5.616;2023-07-08T00:36:27;101553.19;;;18.13;64.51
71805;BME280;59654;52.216;5.616;2023-07-08T00:36:58;101549.53;;;18.14;64.61
71805;BME280;59654;52.216;5.616;2023-07-08T00:37:28;101549.59;;;18.13;65.43
71805;BME280;59654;52.216;5.616;2023-07-08T00:38:00;101552.31;;;18.13;65.26
71805;BME280;59654;52.216;5.616;2023-07-08T00:38:32;101555.88;;;18.13;64.59
71805;BME280;59654;52.216;5.616;2023-07-08T00:39:13;101552.22;;;18.14;64.31
71805;BME280;59654;52.216;5.616;2023-07-08T00:39:47;101548.72;;;18.12;64.81
71805;BME280;59654;52.216;5.616;2023-07-08T00:40:21;101553.19;;;18.13;64.69
71805;BME280;59654;52.216;5.616;2023-07-08T00:41:37;101554.44;;;18.08;65.10
71805;BME280;59654;52.216;5.616;2023-07-08T00:42:16;101548.34;;;18.04;65.01
71805;BME280;59654;52.216;5.616;2023-07-08T00:42:48;101543.88;;;18.03;64.48
71805;BME280;59654;52.216;5.616;2023-07-08T00:43:30;101550.94;;;18.06;64.65
71805;BME280;59654;52.216;5.616;2023-07-08T00:44:16;101543.88;;;18.03;64.99
71805;BME280;59654;52.216;5.616;2023-07-08T00:44:48;101545.72;;;18.03;65.36
71805;BME280;59654;52.216;5.616;2023-07-08T00:45:50;101549.38;;;18.02;65.12
71805;BME280;59654;52.216;5.616;2023-07-08T00:47:09;101543.97;;;18.02;64.92
71805;BME280;59654;52.216;5.616;2023-07-08T00:47:42;101540.41;;;18.01;65.43
71805;BME280;59654;52.216;5.616;2023-07-08T00:48:24;101542.31;;;17.99;65.64
71805;BME280;59654;52.216;5.616;2023-07-08T00:49:13;101542.50;;;17.96;65.57
71805;BME280;59654;52.216;5.616;2023-07-08T00:49:57;101532.56;;;17.96;65.40
71805;BME280;59654;52.216;5.616;2023-07-08T00:50:30;101540.00;;;17.93;65.74
71805;BME280;59654;52.216;5.616;2023-07-08T00:51:01;101535.66;;;17.90;66.36
71805;BME280;59654;52.216;5.616;2023-07-08T00:51:37;101537.47;;;17.90;66.30
71805;BME280;59654;52.216;5.616;2023-07-08T00:52:21;101539.63;;;17.83;66.49
71805;BME280;59654;52.216;5.616;2023-07-08T00:53:22;101541.22;;;17.87;66.15
71805;BME280;59654;52.216;5.616;2023-07-08T00:53:59;101534.78;;;17.90;66.04
71805;BME280;59654;52.216;5.616;2023-07-08T00:54:30;101534.78;;;17.90;65.96
71805;BME280;59654;52.216;5.616;2023-07-08T00:55:05;101541.13;;;17.89;66.32
71805;BME280;59654;52.216;5.616;2023-07-08T00:55:37;101530.41;;;17.87;65.58
71805;BME280;59654;52.216;5.616;2023-07-08T00:56:28;101545.66;;;17.88;66.15
71805;BME280;59654;52.216;5.616;2023-07-08T00:57:03;101536.59;;;17.89;65.97
71805;BME280;59654;52.216;5.616;2023-07-08T00:57:39;101539.38;;;17.88;66.03
71805;BME280;59654;52.216;5.616;2023-07-08T00:58:17;101536.00;;;17.84;66.46
71805;BME280;59654;52.216;5.616;2023-07-08T00:59:38;101539.63;;;17.83;65.84
71805;BME280;59654;52.216;5.616;2023-07-08T01:00:16;101530.59;;;17.84;65.96
71805;BME280;59654;52.216;5.616;2023-07-08T01:00:48;101534.25;;;17.83;66.23
71805;BME280;59654;52.216;5.616;2023-07-08T01:01:20;101541.38;;;17.84;66.72
71805;BME280;59654;52.216;5.616;2023-07-08T01:01:54;101538.06;;;17.79;66.04
71805;BME280;59654;52.216;5.616;2023-07-08T01:02:28;101537.13;;;17.80;65.98
71805;BME280;59654;52.216;5.616;2023-07-08T01:03:00;101529.03;;;17.80;66.71
71805;BME280;59654;52.216;5.616;2023-07-08T01:03:34;101532.66;;;17.79;66.82
71805;BME280;59654;52.216;5.616;2023-07-08T01:04:37;101529.22;;;17.77;66.69
71805;BME280;59654;52.216;5.616;2023-07-08T01:05:19;101524.78;;;17.76;66.03
71805;BME280;59654;52.216;5.616;2023-07-08T01:05:56;101534.69;;;17.76;66.66
71805;BME280;59654;52.216;5.616;2023-07-08T01:06:34;101532.00;;;17.76;67.63
71805;BME280;59654;52.216;5.616;2023-07-08T01:07:11;101528.44;;;17.75;66.90
71805;BME280;59654;52.216;5.616;2023-07-08T01:07:45;101525.91;;;17.72;66.95
71805;BME280;59654;52.216;5.616;2023-07-08T01:08:22;101528.69;;;17.71;66.85
71805;BME280;59654;52.216;5.616;2023-07-08T01:09:03;101525.22;;;17.69;67.01
71805;BME280;59654;52.216;5.616;2023-07-08T01:09:42;101536.00;;;17.69;66.86
71805;BME280;59654;52.216;5.616;2023-07-08T01:10:22;101529.91;;;17.65;66.95
71805;BME280;59654;52.216;5.616;2023-07-08T01:11:02;101527.13;;;17.67;66.57
71805;BME280;59654;52.216;5.616;2023-07-08T01:11:39;101522.59;;;17.67;66.81
71805;BME280;59654;52.216;5.616;2023-07-08T01:12:16;101525.28;;;17.67;66.83
71805;BME280;59654;52.216;5.616;2023-07-08T01:12:56;101527.03;;;17.68;67.14
71805;BME280;59654;52.216;5.616;2023-07-08T01:13:40;101529.72;;;17.68;67.05
71805;BME280;59654;52.216;5.616;2023-07-08T01:14:18;101526.25;;;17.66;66.63
71805;BME280;59654;52.216;5.616;2023-07-08T01:14:53;101526.16;;;17.68;66.95
71805;BME280;59654;52.216;5.616;2023-07-08T01:15:31;101525.22;;;17.69;66.87
71805;BME280;59654;52.216;5.616;2023-07-08T01:16:06;101526.06;;;17.69;67.82
71805;BME280;59654;52.216;5.616;2023-07-08T01:16:38;101528.84;;;17.68;67.57
71805;BME280;59654;52.216;5.616;2023-07-08T01:17:10;101531.63;;;17.66;67.96
71805;BME280;59654;52.216;5.616;2023-07-08T01:17:45;101528.06;;;17.66;67.55
71805;BME280;59654;52.216;5.616;2023-07-08T01:18:19;101530.78;;;17.66;66.79
71805;BME280;59654;52.216;5.616;2023-07-08T01:18:52;101520.94;;;17.65;67.12
71805;BME280;59654;52.216;5.616;2023-07-08T01:19:26;101525.47;;;17.64;67.13
71805;BME280;59654;52.216;5.616;2023-07-08T01:20:05;101528.16;;;17.64;67.51
71805;BME280;59654;52.216;5.616;2023-07-08T01:20:37;101522.97;;;17.61;67.54
71805;BME280;59654;52.216;5.616;2023-07-08T01:21:34;101521.31;;;17.58;67.81
71805;BME280;59654;52.216;5.616;2023-07-08T01:22:10;101522.97;;;17.61;67.74
71805;BME280;59654;52.216;5.616;2023-07-08T01:22:42;101520.44;;;17.58;67.37
71805;BME280;59654;52.216;5.616;2023-07-08T01:23:14;101523.03;;;17.59;67.34
71805;BME280;59654;52.216;5.616;2023-07-08T01:23:45;101524.88;;;17.59;67.57
71805;BME280;59654;52.216;5.616;2023-07-08T01:24:17;101518.59;;;17.58;67.10
71805;BME280;59654;52.216;5.616;2023-07-08T01:24:48;101520.34;;;17.59;67.38
71805;BME280;59654;52.216;5.616;2023-07-08T01:25:19;101522.19;;;17.59;67.11
71805;BME280;59654;52.216;5.616;2023-07-08T01:25:50;101525.03;;;17.56;66.72
71805;BME280;59654;52.216;5.616;2023-07-08T01:26:24;101513.38;;;17.55;67.89
71805;BME280;59654;52.216;5.616;2023-07-08T01:26:56;101514.41;;;17.53;67.24
71805;BME280;59654;52.216;5.616;2023-07-08T01:27:27;101514.34;;;17.54;67.53
71805;BME280;59654;52.216;5.616;2023-07-08T01:27:58;101513.47;;;17.54;67.86
71805;BME280;59654;52.216;5.616;2023-07-08T01:28:31;101515.28;;;17.53;68.02
71805;BME280;59654;52.216;5.616;2023-07-08T01:29:03;101511.81;;;17.51;68.37
71805;BME280;59654;52.216;5.616;2023-07-08T01:29:34;101510.94;;;17.51;67.92
71805;BME280;59654;52.216;5.616;2023-07-08T01:30:07;101508.06;;;17.54;67.73
71805;BME280;59654;52.216;5.616;2023-07-08T01:30:41;101506.34;;;17.53;67.87
71805;BME280;59654;52.216;5.616;2023-07-08T01:31:13;101514.41;;;17.53;67.73
71805;BME280;59654;52.216;5.616;2023-07-08T01:31:44;101510.06;;;17.50;68.48
71805;BME280;59654;52.216;5.616;2023-07-08T01:32:19;101508.50;;;17.46;67.39
71805;BME280;59654;52.216;5.616;2023-07-08T01:32:56;101503.81;;;17.50;67.94
71805;BME280;59654;52.216;5.616;2023-07-08T01:33:31;101502.94;;;17.49;68.56
71805;BME280;59654;52.216;5.616;2023-07-08T01:34:05;101509.19;;;17.50;68.80
71805;BME280;59654;52.216;5.616;2023-07-08T01:34:37;101501.28;;;17.47;68.07
71805;BME280;59654;52.216;5.616;2023-07-08T01:35:11;101502.44;;;17.43;68.40
71805;BME280;59654;52.216;5.616;2023-07-08T01:35:45;101507.81;;;17.43;68.21
71805;BME280;59654;52.216;5.616;2023-07-08T01:36:20;101503.31;;;17.43;68.07
71805;BME280;59654;52.216;5.616;2023-07-08T01:36:54;101504.25;;;17.42;67.82
71805;BME280;59654;52.216;5.616;2023-07-08T01:37:30;101502.34;;;17.44;67.34
71805;BME280;59654;52.216;5.616;2023-07-08T01:38:10;101508.69;;;17.43;67.77
71805;BME280;59654;52.216;5.616;2023-07-08T01:38:45;101503.09;;;17.46;67.07
71805;BME280;59654;52.216;5.616;2023-07-08T01:39:19;101500.59;;;17.43;68.56
71805;BME280;59654;52.216;5.616;2023-07-08T01:39:51;101505.13;;;17.43;68.31
71805;BME280;59654;52.216;5.616;2023-07-08T01:40:34;101517.03;;;17.39;68.01
71805;BME280;59654;52.216;5.616;2023-07-08T01:41:12;101508.00;;;17.40;68.43
71805;BME280;59654;52.216;5.616;2023-07-08T01:41:45;101506.25;;;17.39;68.20
71805;BME280;59654;52.216;5.616;2023-07-08T01:42:16;101504.50;;;17.38;67.60
71805;BME280;59654;52.216;5.616;2023-07-08T01:42:47;101504.41;;;17.39;68.07
71805;BME280;59654;52.216;5.616;2023-07-08T01:43:18;101511.56;;;17.40;68.42
71805;BME280;59654;52.216;5.616;2023-07-08T01:43:49;101511.56;;;17.40;68.07
71805;BME280;59654;52.216;5.616;2023-07-08T01:44:37;101504.50;;;17.38;68.29
71805;BME280;59654;52.216;5.616;2023-07-08T01:45:13;101508.06;;;17.38;68.10
71805;BME280;59654;52.216;5.616;2023-07-08T01:45:47;101504.50;;;17.38;68.37
71805;BME280;59654;52.216;5.616;2023-07-08T01:46:23;101510.84;;;17.37;68.83
71805;BME280;59654;52.216;5.616;2023-07-08T01:47:09;101508.19;;;17.35;68.92
71805;BME280;59654;52.216;5.616;2023-07-08T01:47:51;101501.94;;;17.35;68.38
71805;BME280;59654;52.216;5.616;2023-07-08T01:48:38;101502.09;;;17.32;68.84
71805;BME280;59654;52.216;5.616;2023-07-08T01:49:12;101499.31;;;17.33;68.48
71805;BME280;59654;52.216;5.616;2023-07-08T01:49:47;101500.19;;;17.34;69.08
71805;BME280;59654;52.216;5.616;2023-07-08T01:50:20;101501.16;;;17.33;68.63
71805;BME280;59654;52.216;5.616;2023-07-08T01:50:59;101503.06;;;17.31;68.89
71805;BME280;59654;52.216;5.616;2023-07-08T01:51:32;101501.22;;;17.31;68.99
71805;BME280;59654;52.216;5.616;2023-07-08T01:52:03;101504.00;;;17.30;68.68
71805;BME280;59654;52.216;5.616;2023-07-08T01:52:35;101501.44;;;17.28;68.60
71805;BME280;59654;52.216;5.616;2023-07-08T01:53:14;101498.63;;;17.30;69.14
71805;BME280;59654;52.216;5.616;2023-07-08T01:53:46;101493.34;;;17.28;69.65
71805;BME280;59654;52.216;5.616;2023-07-08T01:54:17;101494.28;;;17.27;69.04
71805;BME280;59654;52.216;5.616;2023-07-08T01:54:54;101490.72;;;17.26;68.79
71805;BME280;59654;52.216;5.616;2023-07-08T01:55:27;101492.47;;;17.27;69.18
71805;BME280;59654;52.216;5.616;2023-07-08T01:56:02;101496.22;;;17.25;69.00
71805;BME280;59654;52.216;5.616;2023-07-08T01:56:34;101492.38;;;17.29;69.04
71805;BME280;59654;52.216;5.616;2023-07-08T01:57:05;101494.22;;;17.29;68.72
71805;BME280;59654;52.216;5.616;2023-07-08T01:57:37;101489.06;;;17.24;68.63
71805;BME280;59654;52.216;5.616;2023-07-08T01:58:08;101494.38;;;17.25;68.86
71805;BME280;59654;52.216;5.616;2023-07-08T01:58:39;101489.94;;;17.24;69.12
71805;BME280;59654;52.216;5.616;2023-07-08T01:59:10;101490.91;;;17.23;68.76
71805;BME280;59654;52.216;5.616;2023-07-08T01:59:40;101487.25;;;17.24;69.00
71805;BME280;59654;52.216;5.616;2023-07-08T02:00:12;101489.16;;;17.22;68.77
71805;BME280;59654;52.216;5.616;2023-07-08T02:00:47;101486.38;;;17.24;68.76
71805;BME280;59654;52.216;5.616;2023-07-08T02:01:19;101489.00;;;17.25;68.25
71805;BME280;59654;52.216;5.616;2023-07-08T02:01:50;101481.84;;;17.24;68.00
71805;BME280;59654;52.216;5.616;2023-07-08T02:02:25;101483.53;;;17.27;68.51
71805;BME280;59654;52.216;5.616;2023-07-08T02:02:56;101489.78;;;17.27;68.96
71805;BME280;59654;52.216;5.616;2023-07-08T02:03:28;101483.44;;;17.29;67.95
71805;BME280;59654;52.216;5.616;2023-07-08T02:03:59;101486.22;;;17.27;68.66
71805;BME280;59654;52.216;5.616;2023-07-08T02:04:30;101487.16;;;17.26;68.06
71805;BME280;59654;52.216;5.616;2023-07-08T02:05:01;101483.59;;;17.25;68.54
71805;BME280;59654;52.216;5.616;2023-07-08T02:05:32;101487.25;;;17.24;69.01
71805;BME280;59654;52.216;5.616;2023-07-08T02:06:03;101479.06;;;17.26;68.97
71805;BME280;59654;52.216;5.616;2023-07-08T02:06:34;101484.56;;;17.24;68.72
71805;BME280;59654;52.216;5.616;2023-07-08T02:07:10;101482.81;;;17.23;68.70
71805;BME280;59654;52.216;5.616;2023-07-08T02:07:41;101485.66;;;17.20;68.74
71805;BME280;59654;52.216;5.616;2023-07-08T02:08:12;101486.47;;;17.22;68.85
71805;BME280;59654;52.216;5.616;2023-07-08T02:08:43;101480.19;;;17.22;68.47
71805;BME280;59654;52.216;5.616;2023-07-08T02:09:14;101478.28;;;17.24;68.41
71805;BME280;59654;52.216;5.616;2023-07-08T02:09:44;101477.50;;;17.22;68.05
71805;BME280;59654;52.216;5.616;2023-07-08T02:10:15;101487.25;;;17.24;68.74
71805;BME280;59654;52.216;5.616;2023-07-08T02:10:55;101480.13;;;17.23;69.20
71805;BME280;59654;52.216;5.616;2023-07-08T02:11:27;101484.63;;;17.23;69.12
71805;BME280;59654;52.216;5.616;2023-07-08T02:11:58;101477.59;;;17.20;68.95
71805;BME280;59654;52.216;5.616;2023-07-08T02:12:28;101483.84;;;17.21;69.15
71805;BME280;59654;52.216;5.616;2023-07-08T02:12:59;101474.88;;;17.20;68.82
71805;BME280;59654;52.216;5.616;2023-07-08T02:13:30;101474.09;;;17.18;69.44
71805;BME280;59654;52.216;5.616;2023-07-08T02:14:01;101476.72;;;17.20;69.13
71805;BME280;59654;52.216;5.616;2023-07-08T02:14:34;101478.69;;;17.16;68.95
71805;BME280;59654;52.216;5.616;2023-07-08T02:15:05;101474.09;;;17.18;69.72
71805;BME280;59654;52.216;5.616;2023-07-08T02:15:37;101478.69;;;17.16;69.79
71805;BME280;59654;52.216;5.616;2023-07-08T02:16:08;101474.28;;;17.15;69.68
71805;BME280;59654;52.216;5.616;2023-07-08T02:16:38;101477.03;;;17.14;69.40
71805;BME280;59654;52.216;5.616;2023-07-08T02:17:09;101476.16;;;17.13;69.01
71805;BME280;59654;52.216;5.616;2023-07-08T02:17:40;101469.84;;;17.14;69.55
71805;BME280;59654;52.216;5.616;2023-07-08T02:18:11;101477.03;;;17.14;69.47
71805;BME280;59654;52.216;5.616;2023-07-08T02:18:41;101476.28;;;17.12;69.51
71805;BME280;59654;52.216;5.616;2023-07-08T02:19:13;101473.69;;;17.10;69.27
71805;BME280;59654;52.216;5.616;2023-07-08T02:19:44;101473.69;;;17.10;69.11
71805;BME280;59654;52.216;5.616;2023-07-08T02:20:15;101469.25;;;17.09;69.45
71805;BME280;59654;52.216;5.616;2023-07-08T02:20:46;101471.06;;;17.09;69.17
71805;BME280;59654;52.216;5.616;2023-07-08T02:21:17;101462.28;;;17.05;69.00
71805;BME280;59654;52.216;5.616;2023-07-08T02:21:49;101464.88;;;17.07;69.35
71805;BME280;59654;52.216;5.616;2023-07-08T02:22:23;101465.84;;;17.06;69.31
71805;BME280;59654;52.216;5.616;2023-07-08T02:22:54;101464.09;;;17.05;69.28
71805;BME280;59654;52.216;5.616;2023-07-08T02:23:26;101467.75;;;17.04;68.59
71805;BME280;59654;52.216;5.616;2023-07-08T02:24:02;101459.66;;;17.04;68.77
71805;BME280;59654;52.216;5.616;2023-07-08T02:24:34;101463.22;;;17.04;68.80
71805;BME280;59654;52.216;5.616;2023-07-08T02:25:05;101460.44;;;17.06;68.84
71805;BME280;59654;52.216;5.616;2023-07-08T02:25:36;101465.75;;;17.07;69.04
71805;BME280;59654;52.216;5.616;2023-07-08T02:26:07;101459.50;;;17.07;69.51
71805;BME280;59654;52.216;5.616;2023-07-08T02:26:37;101467.50;;;17.08;69.54
71805;BME280;59654;52.216;5.616;2023-07-08T02:27:08;101466.63;;;17.08;69.14
71805;BME280;59654;52.216;5.616;2023-07-08T02:27:39;101461.31;;;17.06;69.51
71805;BME280;59654;52.216;5.616;2023-07-08T02:28:10;101461.31;;;17.06;69.64
71805;BME280;59654;52.216;5.616;2023-07-08T02:28:41;101467.66;;;17.05;69.18
71805;BME280;59654;52.216;5.616;2023-07-08T02:29:12;101465.91;;;17.04;68.92
71805;BME280;59654;52.216;5.616;2023-07-08T02:29:42;101464.97;;;17.05;69.56
71805;BME280;59654;52.216;5.616;2023-07-08T02:30:13;101463.22;;;17.04;69.89
71805;BME280;59654;52.216;5.616;2023-07-08T02:30:45;101464.97;;;17.05;69.21
71805;BME280;59654;52.216;5.616;2023-07-08T02:31:16;101463.13;;;17.06;69.55
71805;BME280;59654;52.216;5.616;2023-07-08T02:31:47;101466.78;;;17.05;69.66
71805;BME280;59654;52.216;5.616;2023-07-08T02:32:18;101456.97;;;17.04;69.85
71805;BME280;59654;52.216;5.616;2023-07-08T02:32:49;101462.34;;;17.04;69.41
71805;BME280;59654;52.216;5.616;2023-07-08T02:33:27;101465.13;;;17.02;68.88
71805;BME280;59654;52.216;5.616;2023-07-08T02:34:03;101468.69;;;17.03;68.73
71805;BME280;59654;52.216;5.616;2023-07-08T02:34:34;101460.63;;;17.03;69.32
71805;BME280;59654;52.216;5.616;2023-07-08T02:35:08;101461.66;;;17.00;69.39
71805;BME280;59654;52.216;5.616;2023-07-08T02:35:39;101466.09;;;17.01;69.76
71805;BME280;59654;52.216;5.616;2023-07-08T02:36:10;101461.66;;;17.00;69.63
71805;BME280;59654;52.216;5.616;2023-07-08T02:36:41;101464.19;;;17.03;69.29
71805;BME280;59654;52.216;5.616;2023-07-08T02:37:12;101463.47;;;17.00;69.51
71805;BME280;59654;52.216;5.616;2023-07-08T02:37:43;101467.03;;;17.00;69.88
71805;BME280;59654;52.216;5.616;2023-07-08T02:38:14;101463.47;;;17.00;69.80
71805;BME280;59654;52.216;5.616;2023-07-08T02:38:44;101464.44;;;16.99;69.40
71805;BME280;59654;52.216;5.616;2023-07-08T02:39:15;101468.19;;;16.96;69.28
71805;BME280;59654;52.216;5.616;2023-07-08T02:39:46;101465.56;;;16.95;69.34
71805;BME280;59654;52.216;5.616;2023-07-08T02:40:17;101461.06;;;16.95;69.59
71805;BME280;59654;52.216;5.616;2023-07-08T02:40:48;101463.81;;;16.94;69.99
71805;BME280;59654;52.216;5.616;2023-07-08T02:41:18;101470.09;;;16.94;69.58
71805;BME280;59654;52.216;5.616;2023-07-08T02:41:49;101461.06;;;16.95;69.73
71805;BME280;59654;52.216;5.616;2023-07-08T02:42:20;101457.56;;;16.93;69.71
71805;BME280;59654;52.216;5.616;2023-07-08T02:42:52;101457.56;;;16.93;69.71
71805;BME280;59654;52.216;5.616;2023-07-08T02:43:23;101457.66;;;16.91;69.87
71805;BME280;59654;52.216;5.616;2023-07-08T02:43:53;101456.78;;;16.91;69.47
71805;BME280;59654;52.216;5.616;2023-07-08T02:44:24;101456.69;;;16.92;69.55
71805;BME280;59654;52.216;5.616;2023-07-08T02:44:57;101448.78;;;16.89;70.01
71805;BME280;59654;52.216;5.616;2023-07-08T02:45:28;101458.69;;;16.89;70.09
71805;BME280;59654;52.216;5.616;2023-07-08T02:45:58;101456.84;;;16.89;69.77
71805;BME280;59654;52.216;5.616;2023-07-08T02:46:29;101450.59;;;16.89;70.10
71805;BME280;59654;52.216;5.616;2023-07-08T02:47:00;101451.56;;;16.88;70.34
71805;BME280;59654;52.216;5.616;2023-07-08T02:47:31;101452.66;;;16.84;70.32
71805;BME280;59654;52.216;5.616;2023-07-08T02:48:02;101449.97;;;16.84;69.85
71805;BME280;59654;52.216;5.616;2023-07-08T02:48:33;101447.28;;;16.84;69.50
71805;BME280;59654;52.216;5.616;2023-07-08T02:49:04;101450.06;;;16.82;70.16
71805;BME280;59654;52.216;5.616;2023-07-08T02:49:34;101449.09;;;16.83;70.55
71805;BME280;59654;52.216;5.616;2023-07-08T02:50:07;101443.78;;;16.82;70.71
71805;BME280;59654;52.216;5.616;2023-07-08T02:50:39;101440.22;;;16.81;69.96
71805;BME280;59654;52.216;5.616;2023-07-08T02:51:10;101441.22;;;16.80;70.37
71805;BME280;59654;52.216;5.616;2023-07-08T02:51:41;101451.19;;;16.78;70.48
71805;BME280;59654;52.216;5.616;2023-07-08T02:52:12;101444.16;;;16.76;70.57
71805;BME280;59654;52.216;5.616;2023-07-08T02:52:43;101445.97;;;16.75;70.23
71805;BME280;59654;52.216;5.616;2023-07-08T02:53:13;101451.28;;;16.77;70.50
71805;BME280;59654;52.216;5.616;2023-07-08T02:53:44;101448.66;;;16.75;70.67
71805;BME280;59654;52.216;5.616;2023-07-08T02:54:15;101450.56;;;16.73;70.44
71805;BME280;59654;52.216;5.616;2023-07-08T02:54:46;101444.22;;;16.74;70.74
71805;BME280;59654;52.216;5.616;2023-07-08T02:55:17;101444.22;;;16.74;70.71
71805;BME280;59654;52.216;5.616;2023-07-08T02:55:47;101443.38;;;16.74;70.81
71805;BME280;59654;52.216;5.616;2023-07-08T02:56:18;101447.88;;;16.73;71.02
71805;BME280;59654;52.216;5.616;2023-07-08T02:56:49;101443.53;;;16.71;70.87
71805;BME280;59654;52.216;5.616;2023-07-08T02:57:20;101446.28;;;16.69;70.89
71805;BME280;59654;52.216;5.616;2023-07-08T02:57:50;101452.63;;;16.68;70.52